sensor_id;sensor_type;location;lat;lon;timestamp;temperature;humidity
2603;DHT22;1311;47.966;7.958;2023-06-22T00:01:16;19.20;99.90
2603;DHT22;1311;47.966;7.958;2023-06-22T00:03:42;19.10;99.90
2603;DHT22;1311;47.966;7.958;2023-06-22T00:06:09;19.10;99.90
2603;DHT22;1311;47.966;7.958;2023-06-22T00:08:36;19.10;99.90
2603;DHT22;1311;47.966;7.958;2023-06-22T00:11:02;19.10;99.90
2603;DHT22;1311;47.966;7.958;2023-06-22T00:13:31;19.10;99.90
2603;DHT22;1311;47.966;7.958;2023-06-22T00:15:57;19.00;99.90
2603;DHT22;1311;47.966;7.958;2023-06-22T00:18:24;19.00;99.90
2603;DHT22;1311;47.966;7.958;2023-06-22T00:20:54;19.00;99.90
2603;DHT22;1311;47.966;7.958;2023-06-22T00:23:23;18.90;99.90
2603;DHT22;1311;47.966;7.958;2023-06-22T00:25:50;18.90;99.90
2603;DHT22;1311;47.966;7.958;2023-06-22T00:28:17;18.90;99.90
2603;DHT22;1311;47.966;7.958;2023-06-22T00:30:45;18.80;99.90
2603;DHT22;1311;47.966;7.958;2023-06-22T00:33:13;18.80;99.90
2603;DHT22;1311;47.966;7.958;2023-06-22T00:35:39;18.70;99.90
2603;DHT22;1311;47.966;7.958;2023-06-22T00:38:06;18.70;99.90
2603;DHT22;1311;47.966;7.958;2023-06-22T00:40:34;18.60;99.90
2603;DHT22;1311;47.966;7.958;2023-06-22T00:43:01;18.60;99.90
2603;DHT22;1311;47.966;7.958;2023-06-22T00:45:27;18.60;99.90
2603;DHT22;1311;47.966;7.958;2023-06-22T00:47:57;18.60;99.90
2603;DHT22;1311;47.966;7.958;2023-06-22T00:50:26;18.60;99.90
2603;DHT22;1311;47.966;7.958;2023-06-22T00:52:54;18.50;99.90
2603;DHT22;1311;47.966;7.958;2023-06-22T00:55:22;18.50;99.90
2603;DHT22;1311;47.966;7.958;2023-06-22T00:57:49;18.50;99.90
2603;DHT22;1311;47.966;7.958;2023-06-22T01:00:21;18.50;99.90
2603;DHT22;1311;47.966;7.958;2023-06-22T01:02:51;18.50;99.90
2603;DHT22;1311;47.966;7.958;2023-06-22T01:05:20;18.50;99.90
2603;DHT22;1311;47.966;7.958;2023-06-22T01:07:56;18.60;99.90
2603;DHT22;1311;47.966;7.958;2023-06-22T01:10:33;18.50;99.90
2603;DHT22;1311;47.966;7.958;2023-06-22T01:13:06;18.40;99.90
2603;DHT22;1311;47.966;7.958;2023-06-22T01:15:37;18.50;99.90
2603;DHT22;1311;47.966;7.958;2023-06-22T01:18:08;18.40;99.90
2603;DHT22;1311;47.966;7.958;2023-06-22T01:20:38;18.40;99.90
2603;DHT22;1311;47.966;7.958;2023-06-22T01:23:10;18.40;99.90
2603;DHT22;1311;47.966;7.958;2023-06-22T01:25:45;18.40;99.90
2603;DHT22;1311;47.966;7.958;2023-06-22T01:28:23;18.30;99.90
2603;DHT22;1311;47.966;7.958;2023-06-22T01:30:52;18.30;99.90
2603;DHT22;1311;47.966;7.958;2023-06-22T01:33:33;18.30;99.90
2603;DHT22;1311;47.966;7.958;2023-06-22T01:36:00;18.30;99.90
2603;DHT22;1311;47.966;7.958;2023-06-22T01:38:29;18.20;99.90
2603;DHT22;1311;47.966;7.958;2023-06-22T01:40:57;18.20;99.90
2603;DHT22;1311;47.966;7.958;2023-06-22T01:43:26;18.10;99.90
2603;DHT22;1311;47.966;7.958;2023-06-22T01:45:55;18.10;99.90
2603;DHT22;1311;47.966;7.958;2023-06-22T01:48:22;18.10;99.90
2603;DHT22;1311;47.966;7.958;2023-06-22T01:50:51;18.10;99.90
2603;DHT22;1311;47.966;7.958;2023-06-22T01:53:18;18.10;99.90
2603;DHT22;1311;47.966;7.958;2023-06-22T01:55:46;18.10;99.90
2603;DHT22;1311;47.966;7.958;2023-06-22T01:58:13;18.10;99.90
2603;DHT22;1311;47.966;7.958;2023-06-22T02:00:44;18.00;99.90
2603;DHT22;1311;47.966;7.958;2023-06-22T02:03:17;18.10;99.90
2603;DHT22;1311;47.966;7.958;2023-06-22T02:05:48;18.00;99.90
2603;DHT22;1311;47.966;7.958;2023-06-22T02:08:19;18.00;99.90
2603;DHT22;1311;47.966;7.958;2023-06-22T02:10:47;18.00;99.90
2603;DHT22;1311;47.966;7.958;2023-06-22T02:13:15;18.00;99.90
2603;DHT22;1311;47.966;7.958;2023-06-22T02:15:43;18.00;99.90
2603;DHT22;1311;47.966;7.958;2023-06-22T02:18:10;17.90;99.90
2603;DHT22;1311;47.966;7.958;2023-06-22T02:20:39;18.00;99.90
2603;DHT22;1311;47.966;7.958;2023-06-22T02:23:06;18.00;99.90
2603;DHT22;1311;47.966;7.958;2023-06-22T02:25:33;18.00;99.90
2603;DHT22;1311;47.966;7.958;2023-06-22T02:28:00;18.00;99.90
2603;DHT22;1311;47.966;7.958;2023-06-22T02:30:27;18.00;99.90
2603;DHT22;1311;47.966;7.958;2023-06-22T02:32:54;18.00;99.90
2603;DHT22;1311;47.966;7.958;2023-06-22T02:35:24;18.00;99.90
2603;DHT22;1311;47.966;7.958;2023-06-22T02:37:52;17.90;99.90
2603;DHT22;1311;47.966;7.958;2023-06-22T02:40:19;17.90;99.90
2603;DHT22;1311;47.966;7.958;2023-06-22T02:42:46;17.90;99.90
2603;DHT22;1311;47.966;7.958;2023-06-22T02:45:13;17.90;99.90
2603;DHT22;1311;47.966;7.958;2023-06-22T02:47:40;17.80;99.90
2603;DHT22;1311;47.966;7.958;2023-06-22T02:50:07;17.80;99.90
2603;DHT22;1311;47.966;7.958;2023-06-22T02:52:34;17.80;99.90
2603;DHT22;1311;47.966;7.958;2023-06-22T02:55:02;17.80;99.90
2603;DHT22;1311;47.966;7.958;2023-06-22T02:57:29;17.80;99.90
2603;DHT22;1311;47.966;7.958;2023-06-22T02:59:56;17.70;99.90
2603;DHT22;1311;47.966;7.958;2023-06-22T03:02:23;17.70;99.90
2603;DHT22;1311;47.966;7.958;2023-06-22T03:04:51;17.70;99.90
2603;DHT22;1311;47.966;7.958;2023-06-22T03:07:19;17.70;99.90
2603;DHT22;1311;47.966;7.958;2023-06-22T03:09:46;17.70;99.90
2603;DHT22;1311;47.966;7.958;2023-06-22T03:12:14;17.70;99.90
2603;DHT22;1311;47.966;7.958;2023-06-22T03:14:41;17.70;99.90
2603;DHT22;1311;47.966;7.958;2023-06-22T03:17:07;17.70;99.90
2603;DHT22;1311;47.966;7.958;2023-06-22T03:19:34;17.70;99.90
2603;DHT22;1311;47.966;7.958;2023-06-22T03:22:01;17.70;99.90
2603;DHT22;1311;47.966;7.958;2023-06-22T03:24:28;17.70;99.90
2603;DHT22;1311;47.966;7.958;2023-06-22T03:26:55;17.70;99.90
2603;DHT22;1311;47.966;7.958;2023-06-22T03:29:23;17.70;99.90
2603;DHT22;1311;47.966;7.958;2023-06-22T03:31:50;17.70;99.90
2603;DHT22;1311;47.966;7.958;2023-06-22T03:34:17;17.70;99.90
2603;DHT22;1311;47.966;7.958;2023-06-22T03:36:44;17.70;99.90
2603;DHT22;1311;47.966;7.958;2023-06-22T03:39:11;17.70;99.90
2603;DHT22;1311;47.966;7.958;2023-06-22T03:41:38;17.70;99.90
2603;DHT22;1311;47.966;7.958;2023-06-22T03:44:05;17.80;99.90
2603;DHT22;1311;47.966;7.958;2023-06-22T03:46:33;17.90;99.90
2603;DHT22;1311;47.966;7.958;2023-06-22T03:49:00;17.90;99.90
2603;DHT22;1311;47.966;7.958;2023-06-22T03:51:28;18.00;99.90
2603;DHT22;1311;47.966;7.958;2023-06-22T03:53:55;18.20;99.90
2603;DHT22;1311;47.966;7.958;2023-06-22T03:56:22;18.20;99.90
2603;DHT22;1311;47.966;7.958;2023-06-22T03:58:49;18.30;99.90
2603;DHT22;1311;47.966;7.958;2023-06-22T04:01:16;18.30;99.90
2603;DHT22;1311;47.966;7.958;2023-06-22T04:03:44;18.40;99.90
2603;DHT22;1311;47.966;7.958;2023-06-22T04:06:13;18.50;99.90
2603;DHT22;1311;47.966;7.958;2023-06-22T04:08:40;18.60;99.90
2603;DHT22;1311;47.966;7.958;2023-06-22T04:11:07;18.70;99.90
2603;DHT22;1311;47.966;7.958;2023-06-22T04:13:34;18.80;99.90
2603;DHT22;1311;47.966;7.958;2023-06-22T04:16:01;18.80;99.90
2603;DHT22;1311;47.966;7.958;2023-06-22T04:18:27;19.00;99.90
2603;DHT22;1311;47.966;7.958;2023-06-22T04:20:55;19.30;99.90
2603;DHT22;1311;47.966;7.958;2023-06-22T04:23:22;19.50;99.90
2603;DHT22;1311;47.966;7.958;2023-06-22T04:25:49;19.70;99.90
2603;DHT22;1311;47.966;7.958;2023-06-22T04:28:16;20.00;99.90
2603;DHT22;1311;47.966;7.958;2023-06-22T04:30:42;20.70;99.90
2603;DHT22;1311;47.966;7.958;2023-06-22T04:33:13;21.40;99.90
2603;DHT22;1311;47.966;7.958;2023-06-22T04:35:40;22.00;99.90
2603;DHT22;1311;47.966;7.958;2023-06-22T04:38:09;22.50;99.90
2603;DHT22;1311;47.966;7.958;2023-06-22T04:40:38;23.10;99.90
2603;DHT22;1311;47.966;7.958;2023-06-22T04:43:05;23.50;99.90
2603;DHT22;1311;47.966;7.958;2023-06-22T04:45:32;23.70;99.90
2603;DHT22;1311;47.966;7.958;2023-06-22T04:48:01;23.70;99.90
2603;DHT22;1311;47.966;7.958;2023-06-22T04:50:27;23.70;99.90
2603;DHT22;1311;47.966;7.958;2023-06-22T04:52:54;23.60;99.90
2603;DHT22;1311;47.966;7.958;2023-06-22T04:55:23;23.40;99.90
2603;DHT22;1311;47.966;7.958;2023-06-22T04:57:51;23.60;99.90
2603;DHT22;1311;47.966;7.958;2023-06-22T05:00:19;24.30;99.90
2603;DHT22;1311;47.966;7.958;2023-06-22T05:02:49;25.00;99.90
2603;DHT22;1311;47.966;7.958;2023-06-22T05:05:16;25.60;99.90
2603;DHT22;1311;47.966;7.958;2023-06-22T05:07:44;26.10;99.90
2603;DHT22;1311;47.966;7.958;2023-06-22T05:10:14;26.30;99.90
2603;DHT22;1311;47.966;7.958;2023-06-22T05:12:42;26.70;99.90
2603;DHT22;1311;47.966;7.958;2023-06-22T05:15:09;27.40;99.90
2603;DHT22;1311;47.966;7.958;2023-06-22T05:17:36;28.20;99.90
2603;DHT22;1311;47.966;7.958;2023-06-22T05:20:09;28.70;99.90
2603;DHT22;1311;47.966;7.958;2023-06-22T05:22:36;28.90;99.90
2603;DHT22;1311;47.966;7.958;2023-06-22T05:25:03;29.50;99.90
2603;DHT22;1311;47.966;7.958;2023-06-22T05:27:30;29.60;99.90
2603;DHT22;1311;47.966;7.958;2023-06-22T05:29:58;29.40;58.80
2603;DHT22;1311;47.966;7.958;2023-06-22T05:32:24;29.10;99.90
2603;DHT22;1311;47.966;7.958;2023-06-22T05:34:51;29.70;1.00
2603;DHT22;1311;47.966;7.958;2023-06-22T05:37:18;29.90;1.00
2603;DHT22;1311;47.966;7.958;2023-06-22T05:39:45;30.10;99.90
2603;DHT22;1311;47.966;7.958;2023-06-22T05:42:11;30.10;99.90
2603;DHT22;1311;47.966;7.958;2023-06-22T05:44:38;30.20;1.00
2603;DHT22;1311;47.966;7.958;2023-06-22T05:47:07;30.10;99.90
2603;DHT22;1311;47.966;7.958;2023-06-22T05:49:34;30.90;99.90
2603;DHT22;1311;47.966;7.958;2023-06-22T05:52:01;31.50;33.30
2603;DHT22;1311;47.966;7.958;2023-06-22T05:54:28;31.60;1.00
2603;DHT22;1311;47.966;7.958;2023-06-22T05:56:55;31.60;99.90
2603;DHT22;1311;47.966;7.958;2023-06-22T05:59:21;32.00;99.90
2603;DHT22;1311;47.966;7.958;2023-06-22T06:01:48;31.10;99.90
2603;DHT22;1311;47.966;7.958;2023-06-22T06:04:18;31.30;99.90
2603;DHT22;1311;47.966;7.958;2023-06-22T06:06:45;31.20;99.90
2603;DHT22;1311;47.966;7.958;2023-06-22T06:09:12;30.80;78.50
2603;DHT22;1311;47.966;7.958;2023-06-22T06:11:39;30.10;99.90
2603;DHT22;1311;47.966;7.958;2023-06-22T06:14:06;30.40;99.90
2603;DHT22;1311;47.966;7.958;2023-06-22T06:16:32;30.40;99.90
2603;DHT22;1311;47.966;7.958;2023-06-22T06:18:59;30.30;99.90
2603;DHT22;1311;47.966;7.958;2023-06-22T06:21:27;29.60;99.90
2603;DHT22;1311;47.966;7.958;2023-06-22T06:23:54;28.50;99.90
2603;DHT22;1311;47.966;7.958;2023-06-22T06:26:21;27.20;99.90
2603;DHT22;1311;47.966;7.958;2023-06-22T06:28:53;27.40;99.90
2603;DHT22;1311;47.966;7.958;2023-06-22T06:31:20;27.10;80.40
2603;DHT22;1311;47.966;7.958;2023-06-22T06:33:46;26.90;99.90
2603;DHT22;1311;47.966;7.958;2023-06-22T06:36:13;26.80;99.90
2603;DHT22;1311;47.966;7.958;2023-06-22T06:38:42;26.30;1.00
2603;DHT22;1311;47.966;7.958;2023-06-22T06:41:08;26.30;1.00
2603;DHT22;1311;47.966;7.958;2023-06-22T06:43:35;25.90;1.00
2603;DHT22;1311;47.966;7.958;2023-06-22T06:46:02;26.20;22.00
2603;DHT22;1311;47.966;7.958;2023-06-22T06:48:29;26.30;17.30
2603;DHT22;1311;47.966;7.958;2023-06-22T06:50:56;26.30;64.80
2603;DHT22;1311;47.966;7.958;2023-06-22T06:53:22;26.30;70.70
2603;DHT22;1311;47.966;7.958;2023-06-22T06:55:51;25.60;99.90
2603;DHT22;1311;47.966;7.958;2023-06-22T06:58:17;24.80;99.90
2603;DHT22;1311;47.966;7.958;2023-06-22T07:00:44;24.20;99.90
2603;DHT22;1311;47.966;7.958;2023-06-22T07:03:11;24.00;99.90
2603;DHT22;1311;47.966;7.958;2023-06-22T07:05:38;23.60;99.90
2603;DHT22;1311;47.966;7.958;2023-06-22T07:08:05;23.20;99.90
2603;DHT22;1311;47.966;7.958;2023-06-22T07:10:32;23.00;99.90
2603;DHT22;1311;47.966;7.958;2023-06-22T07:13:00;23.10;99.90
2603;DHT22;1311;47.966;7.958;2023-06-22T07:15:27;23.20;99.90
2603;DHT22;1311;47.966;7.958;2023-06-22T07:17:54;23.20;99.90
2603;DHT22;1311;47.966;7.958;2023-06-22T07:20:20;23.40;99.90
2603;DHT22;1311;47.966;7.958;2023-06-22T07:22:47;23.80;99.90
2603;DHT22;1311;47.966;7.958;2023-06-22T07:25:14;24.20;99.90
2603;DHT22;1311;47.966;7.958;2023-06-22T07:27:46;24.30;99.90
2603;DHT22;1311;47.966;7.958;2023-06-22T07:30:24;24.50;99.90
2603;DHT22;1311;47.966;7.958;2023-06-22T07:32:50;24.40;99.90
2603;DHT22;1311;47.966;7.958;2023-06-22T07:35:17;24.20;99.90
2603;DHT22;1311;47.966;7.958;2023-06-22T07:37:44;24.30;99.90
2603;DHT22;1311;47.966;7.958;2023-06-22T07:40:12;24.70;99.90
2603;DHT22;1311;47.966;7.958;2023-06-22T07:42:38;25.00;99.90
2603;DHT22;1311;47.966;7.958;2023-06-22T07:45:07;25.50;99.90
2603;DHT22;1311;47.966;7.958;2023-06-22T07:47:35;26.10;99.90
2603;DHT22;1311;47.966;7.958;2023-06-22T07:50:03;26.30;99.90
2603;DHT22;1311;47.966;7.958;2023-06-22T07:52:30;25.70;99.90
2603;DHT22;1311;47.966;7.958;2023-06-22T07:54:57;25.30;99.90
2603;DHT22;1311;47.966;7.958;2023-06-22T07:57:24;25.50;99.90
2603;DHT22;1311;47.966;7.958;2023-06-22T07:59:57;25.90;99.90
2603;DHT22;1311;47.966;7.958;2023-06-22T08:02:25;26.10;99.90
2603;DHT22;1311;47.966;7.958;2023-06-22T08:04:53;25.90;99.90
2603;DHT22;1311;47.966;7.958;2023-06-22T08:07:19;26.10;99.90
2603;DHT22;1311;47.966;7.958;2023-06-22T08:09:47;26.30;99.90
2603;DHT22;1311;47.966;7.958;2023-06-22T08:12:14;26.20;99.90
2603;DHT22;1311;47.966;7.958;2023-06-22T08:14:42;26.40;99.90
2603;DHT22;1311;47.966;7.958;2023-06-22T08:17:08;26.70;99.90
2603;DHT22;1311;47.966;7.958;2023-06-22T08:19:36;27.00;99.90
2603;DHT22;1311;47.966;7.958;2023-06-22T08:22:05;27.20;65.30
2603;DHT22;1311;47.966;7.958;2023-06-22T08:24:32;27.60;1.00
2603;DHT22;1311;47.966;7.958;2023-06-22T08:26:59;27.90;1.00
2603;DHT22;1311;47.966;7.958;2023-06-22T08:29:26;28.10;1.00
2603;DHT22;1311;47.966;7.958;2023-06-22T08:31:52;28.40;1.00
2603;DHT22;1311;47.966;7.958;2023-06-22T08:34:19;28.60;1.00
2603;DHT22;1311;47.966;7.958;2023-06-22T08:36:47;28.50;1.00
2603;DHT22;1311;47.966;7.958;2023-06-22T08:39:18;28.60;99.90
2603;DHT22;1311;47.966;7.958;2023-06-22T08:41:45;28.80;1.00
2603;DHT22;1311;47.966;7.958;2023-06-22T08:44:12;28.60;90.30
2603;DHT22;1311;47.966;7.958;2023-06-22T08:46:39;28.70;1.00
2603;DHT22;1311;47.966;7.958;2023-06-22T08:49:07;28.80;1.00
2603;DHT22;1311;47.966;7.958;2023-06-22T08:51:35;28.50;1.00
2603;DHT22;1311;47.966;7.958;2023-06-22T08:54:02;28.50;1.00
2603;DHT22;1311;47.966;7.958;2023-06-22T08:56:30;29.20;99.90
2603;DHT22;1311;47.966;7.958;2023-06-22T08:58:57;29.70;25.60
2603;DHT22;1311;47.966;7.958;2023-06-22T09:01:24;30.00;60.20
2603;DHT22;1311;47.966;7.958;2023-06-22T09:03:50;29.50;99.90
2603;DHT22;1311;47.966;7.958;2023-06-22T09:06:23;29.20;1.00
2603;DHT22;1311;47.966;7.958;2023-06-22T09:08:50;29.60;99.90
2603;DHT22;1311;47.966;7.958;2023-06-22T09:11:17;29.90;99.90
2603;DHT22;1311;47.966;7.958;2023-06-22T09:13:45;29.80;99.90
2603;DHT22;1311;47.966;7.958;2023-06-22T09:16:12;29.90;99.90
2603;DHT22;1311;47.966;7.958;2023-06-22T09:18:39;30.20;99.90
2603;DHT22;1311;47.966;7.958;2023-06-22T09:21:06;30.30;1.00
2603;DHT22;1311;47.966;7.958;2023-06-22T09:23:33;30.40;1.00
2603;DHT22;1311;47.966;7.958;2023-06-22T09:26:01;30.50;1.00
2603;DHT22;1311;47.966;7.958;2023-06-22T09:28:29;30.40;1.00
2603;DHT22;1311;47.966;7.958;2023-06-22T09:30:57;30.20;99.90
2603;DHT22;1311;47.966;7.958;2023-06-22T09:33:25;30.30;99.90
2603;DHT22;1311;47.966;7.958;2023-06-22T09:35:52;30.70;99.90
2603;DHT22;1311;47.966;7.958;2023-06-22T09:38:19;31.00;99.90
2603;DHT22;1311;47.966;7.958;2023-06-22T09:40:45;31.30;99.90
2603;DHT22;1311;47.966;7.958;2023-06-22T09:43:12;31.50;99.90
2603;DHT22;1311;47.966;7.958;2023-06-22T09:45:39;31.60;18.50
2603;DHT22;1311;47.966;7.958;2023-06-22T09:48:07;31.60;41.10
2603;DHT22;1311;47.966;7.958;2023-06-22T09:50:35;31.80;1.00
2603;DHT22;1311;47.966;7.958;2023-06-22T09:53:02;32.10;1.00
2603;DHT22;1311;47.966;7.958;2023-06-22T09:55:28;32.40;1.00
2603;DHT22;1311;47.966;7.958;2023-06-22T09:57:55;32.40;99.90
2603;DHT22;1311;47.966;7.958;2023-06-22T10:00:22;32.30;99.90
2603;DHT22;1311;47.966;7.958;2023-06-22T10:02:49;32.40;99.90
2603;DHT22;1311;47.966;7.958;2023-06-22T10:05:17;32.70;1.00
2603;DHT22;1311;47.966;7.958;2023-06-22T10:07:44;32.80;99.90
2603;DHT22;1311;47.966;7.958;2023-06-22T10:10:12;33.00;99.90
2603;DHT22;1311;47.966;7.958;2023-06-22T10:12:42;32.70;99.90
2603;DHT22;1311;47.966;7.958;2023-06-22T10:15:10;32.70;99.90
2603;DHT22;1311;47.966;7.958;2023-06-22T10:17:36;32.70;99.00
2603;DHT22;1311;47.966;7.958;2023-06-22T10:20:04;33.00;23.20
2603;DHT22;1311;47.966;7.958;2023-06-22T10:22:38;33.00;1.00
2603;DHT22;1311;47.966;7.958;2023-06-22T10:25:05;33.40;1.00
2603;DHT22;1311;47.966;7.958;2023-06-22T10:27:32;33.70;1.00
2603;DHT22;1311;47.966;7.958;2023-06-22T10:29:59;33.80;1.00
2603;DHT22;1311;47.966;7.958;2023-06-22T10:32:26;34.00;99.90
2603;DHT22;1311;47.966;7.958;2023-06-22T10:34:53;34.40;99.90
2603;DHT22;1311;47.966;7.958;2023-06-22T10:37:20;34.30;99.90
2603;DHT22;1311;47.966;7.958;2023-06-22T10:39:48;34.60;99.90
2603;DHT22;1311;47.966;7.958;2023-06-22T10:42:15;34.80;99.90
2603;DHT22;1311;47.966;7.958;2023-06-22T10:44:42;34.50;99.90
2603;DHT22;1311;47.966;7.958;2023-06-22T10:47:10;33.90;99.90
2603;DHT22;1311;47.966;7.958;2023-06-22T10:49:37;33.70;99.90
2603;DHT22;1311;47.966;7.958;2023-06-22T10:52:05;33.40;99.90
2603;DHT22;1311;47.966;7.958;2023-06-22T10:54:32;33.10;99.90
2603;DHT22;1311;47.966;7.958;2023-06-22T10:57:01;32.50;1.00
2603;DHT22;1311;47.966;7.958;2023-06-22T10:59:28;32.00;1.00
2603;DHT22;1311;47.966;7.958;2023-06-22T11:01:55;31.70;99.90
2603;DHT22;1311;47.966;7.958;2023-06-22T11:04:22;31.30;99.90
2603;DHT22;1311;47.966;7.958;2023-06-22T11:06:49;31.20;99.90
2603;DHT22;1311;47.966;7.958;2023-06-22T11:09:16;31.20;99.90
2603;DHT22;1311;47.966;7.958;2023-06-22T11:11:46;31.40;99.90
2603;DHT22;1311;47.966;7.958;2023-06-22T11:14:14;31.60;99.90
2603;DHT22;1311;47.966;7.958;2023-06-22T11:16:41;32.40;99.90
2603;DHT22;1311;47.966;7.958;2023-06-22T11:19:08;33.10;99.90
2603;DHT22;1311;47.966;7.958;2023-06-22T11:21:34;33.40;99.90
2603;DHT22;1311;47.966;7.958;2023-06-22T11:24:02;33.20;80.20
2603;DHT22;1311;47.966;7.958;2023-06-22T11:26:29;33.10;99.90
2603;DHT22;1311;47.966;7.958;2023-06-22T11:28:57;33.20;99.90
2603;DHT22;1311;47.966;7.958;2023-06-22T11:31:25;33.80;60.30
2603;DHT22;1311;47.966;7.958;2023-06-22T11:33:52;33.60;1.00
2603;DHT22;1311;47.966;7.958;2023-06-22T11:36:19;33.70;1.00
2603;DHT22;1311;47.966;7.958;2023-06-22T11:38:46;34.00;1.00
2603;DHT22;1311;47.966;7.958;2023-06-22T11:41:13;33.80;1.00
2603;DHT22;1311;47.966;7.958;2023-06-22T11:43:40;33.50;1.00
2603;DHT22;1311;47.966;7.958;2023-06-22T11:46:06;33.40;99.90
2603;DHT22;1311;47.966;7.958;2023-06-22T11:48:35;33.50;45.20
2603;DHT22;1311;47.966;7.958;2023-06-22T11:51:02;33.80;1.00
2603;DHT22;1311;47.966;7.958;2023-06-22T11:53:29;33.60;1.00
2603;DHT22;1311;47.966;7.958;2023-06-22T11:55:56;33.70;1.00
2603;DHT22;1311;47.966;7.958;2023-06-22T11:58:23;33.50;1.00
2603;DHT22;1311;47.966;7.958;2023-06-22T12:00:50;33.50;1.00
2603;DHT22;1311;47.966;7.958;2023-06-22T12:03:17;32.90;1.00
2603;DHT22;1311;47.966;7.958;2023-06-22T12:05:45;32.50;1.00
2603;DHT22;1311;47.966;7.958;2023-06-22T12:08:12;32.30;1.00
2603;DHT22;1311;47.966;7.958;2023-06-22T12:10:40;32.50;1.00
2603;DHT22;1311;47.966;7.958;2023-06-22T12:13:06;32.60;1.00
2603;DHT22;1311;47.966;7.958;2023-06-22T12:15:33;32.70;1.00
2603;DHT22;1311;47.966;7.958;2023-06-22T12:18:00;32.50;1.00
2603;DHT22;1311;47.966;7.958;2023-06-22T12:20:27;32.50;1.00
2603;DHT22;1311;47.966;7.958;2023-06-22T12:22:55;32.70;1.00
2603;DHT22;1311;47.966;7.958;2023-06-22T12:25:23;32.80;1.00
2603;DHT22;1311;47.966;7.958;2023-06-22T12:27:50;32.90;1.00
2603;DHT22;1311;47.966;7.958;2023-06-22T12:30:17;32.80;1.00
2603;DHT22;1311;47.966;7.958;2023-06-22T12:32:44;32.60;1.00
2603;DHT22;1311;47.966;7.958;2023-06-22T12:35:11;32.10;1.00
2603;DHT22;1311;47.966;7.958;2023-06-22T12:37:40;31.80;1.00
2603;DHT22;1311;47.966;7.958;2023-06-22T12:40:09;31.40;1.00
2603;DHT22;1311;47.966;7.958;2023-06-22T12:42:36;31.20;48.60
2603;DHT22;1311;47.966;7.958;2023-06-22T12:45:04;31.00;99.90
2603;DHT22;1311;47.966;7.958;2023-06-22T12:47:30;30.60;99.90
2603;DHT22;1311;47.966;7.958;2023-06-22T12:49:57;30.30;1.00
2603;DHT22;1311;47.966;7.958;2023-06-22T12:52:24;30.30;1.00
2603;DHT22;1311;47.966;7.958;2023-06-22T12:54:51;30.40;19.70
2603;DHT22;1311;47.966;7.958;2023-06-22T12:57:19;30.20;1.00
2603;DHT22;1311;47.966;7.958;2023-06-22T12:59:46;29.90;1.00
2603;DHT22;1311;47.966;7.958;2023-06-22T13:02:13;29.50;1.00
2603;DHT22;1311;47.966;7.958;2023-06-22T13:04:40;29.30;1.00
2603;DHT22;1311;47.966;7.958;2023-06-22T13:07:07;29.10;1.00
2603;DHT22;1311;47.966;7.958;2023-06-22T13:09:33;29.40;1.00
2603;DHT22;1311;47.966;7.958;2023-06-22T13:12:02;29.50;99.90
2603;DHT22;1311;47.966;7.958;2023-06-22T13:14:30;29.90;99.90
2603;DHT22;1311;47.966;7.958;2023-06-22T13:16:57;30.30;99.90
2603;DHT22;1311;47.966;7.958;2023-06-22T13:19:24;30.30;86.60
2603;DHT22;1311;47.966;7.958;2023-06-22T13:21:51;30.00;1.00
2603;DHT22;1311;47.966;7.958;2023-06-22T13:24:18;29.80;1.00
2603;DHT22;1311;47.966;7.958;2023-06-22T13:26:44;29.60;1.00
2603;DHT22;1311;47.966;7.958;2023-06-22T13:29:11;29.80;1.00
2603;DHT22;1311;47.966;7.958;2023-06-22T13:31:39;30.20;1.00
2603;DHT22;1311;47.966;7.958;2023-06-22T13:34:06;30.10;1.00
2603;DHT22;1311;47.966;7.958;2023-06-22T13:36:33;30.40;1.00
2603;DHT22;1311;47.966;7.958;2023-06-22T13:39:00;30.50;1.00
2603;DHT22;1311;47.966;7.958;2023-06-22T13:41:26;30.40;1.00
2603;DHT22;1311;47.966;7.958;2023-06-22T13:43:53;30.50;1.00
2603;DHT22;1311;47.966;7.958;2023-06-22T13:46:20;30.10;29.50
2603;DHT22;1311;47.966;7.958;2023-06-22T13:48:48;29.90;99.90
2603;DHT22;1311;47.966;7.958;2023-06-22T13:51:14;29.50;99.90
2603;DHT22;1311;47.966;7.958;2023-06-22T13:53:41;29.00;99.90
2603;DHT22;1311;47.966;7.958;2023-06-22T13:56:08;29.10;1.00
2603;DHT22;1311;47.966;7.958;2023-06-22T13:58:35;29.00;1.00
2603;DHT22;1311;47.966;7.958;2023-06-22T14:01:01;28.80;1.00
2603;DHT22;1311;47.966;7.958;2023-06-22T14:03:28;28.60;1.00
2603;DHT22;1311;47.966;7.958;2023-06-22T14:05:56;28.40;99.90
2603;DHT22;1311;47.966;7.958;2023-06-22T14:08:23;28.30;1.00
2603;DHT22;1311;47.966;7.958;2023-06-22T14:10:50;28.00;99.90
2603;DHT22;1311;47.966;7.958;2023-06-22T14:13:19;27.80;1.00
2603;DHT22;1311;47.966;7.958;2023-06-22T14:15:45;27.60;1.00
2603;DHT22;1311;47.966;7.958;2023-06-22T14:18:13;27.40;99.90
2603;DHT22;1311;47.966;7.958;2023-06-22T14:20:40;27.30;99.90
2603;DHT22;1311;47.966;7.958;2023-06-22T14:23:08;27.20;1.00
2603;DHT22;1311;47.966;7.958;2023-06-22T14:25:35;27.10;99.90
2603;DHT22;1311;47.966;7.958;2023-06-22T14:28:02;27.00;99.90
2603;DHT22;1311;47.966;7.958;2023-06-22T14:30:29;27.00;99.90
2603;DHT22;1311;47.966;7.958;2023-06-22T14:32:55;27.30;99.90
2603;DHT22;1311;47.966;7.958;2023-06-22T14:35:22;27.20;99.90
2603;DHT22;1311;47.966;7.958;2023-06-22T14:37:49;27.10;99.90
2603;DHT22;1311;47.966;7.958;2023-06-22T14:40:17;27.10;99.90
2603;DHT22;1311;47.966;7.958;2023-06-22T14:42:44;26.90;99.90
2603;DHT22;1311;47.966;7.958;2023-06-22T14:45:12;27.00;99.90
2603;DHT22;1311;47.966;7.958;2023-06-22T14:47:39;27.20;1.00
2603;DHT22;1311;47.966;7.958;2023-06-22T14:50:06;27.30;1.00
2603;DHT22;1311;47.966;7.958;2023-06-22T14:52:33;27.50;1.00
2603;DHT22;1311;47.966;7.958;2023-06-22T14:54:59;27.50;1.00
2603;DHT22;1311;47.966;7.958;2023-06-22T14:57:27;27.50;42.70
2603;DHT22;1311;47.966;7.958;2023-06-22T14:59:54;27.20;1.00
2603;DHT22;1311;47.966;7.958;2023-06-22T15:02:21;27.20;1.00
2603;DHT22;1311;47.966;7.958;2023-06-22T15:04:48;27.00;10.40
2603;DHT22;1311;47.966;7.958;2023-06-22T15:07:15;26.70;74.60
2603;DHT22;1311;47.966;7.958;2023-06-22T15:09:42;26.50;85.80
2603;DHT22;1311;47.966;7.958;2023-06-22T15:12:10;26.40;62.50
2603;DHT22;1311;47.966;7.958;2023-06-22T15:14:40;26.20;1.00
2603;DHT22;1311;47.966;7.958;2023-06-22T15:17:07;26.10;1.00
2603;DHT22;1311;47.966;7.958;2023-06-22T15:19:35;26.10;1.00
2603;DHT22;1311;47.966;7.958;2023-06-22T15:22:03;26.20;39.40
2603;DHT22;1311;47.966;7.958;2023-06-22T15:24:30;26.50;1.00
2603;DHT22;1311;47.966;7.958;2023-06-22T15:26:57;26.50;99.90
2603;DHT22;1311;47.966;7.958;2023-06-22T15:29:24;26.50;1.00
2603;DHT22;1311;47.966;7.958;2023-06-22T15:31:52;26.60;1.00
2603;DHT22;1311;47.966;7.958;2023-06-22T15:34:19;26.50;1.00
2603;DHT22;1311;47.966;7.958;2023-06-22T15:36:46;26.60;1.00
2603;DHT22;1311;47.966;7.958;2023-06-22T15:39:13;26.50;1.00
2603;DHT22;1311;47.966;7.958;2023-06-22T15:41:40;26.50;42.20
2603;DHT22;1311;47.966;7.958;2023-06-22T15:44:07;26.40;99.90
2603;DHT22;1311;47.966;7.958;2023-06-22T15:46:34;26.40;11.90
2603;DHT22;1311;47.966;7.958;2023-06-22T15:49:02;26.40;1.00
2603;DHT22;1311;47.966;7.958;2023-06-22T15:51:29;26.50;1.00
2603;DHT22;1311;47.966;7.958;2023-06-22T15:53:56;26.60;1.00
2603;DHT22;1311;47.966;7.958;2023-06-22T15:56:22;26.60;1.00
2603;DHT22;1311;47.966;7.958;2023-06-22T15:58:50;26.60;99.90
2603;DHT22;1311;47.966;7.958;2023-06-22T16:01:17;26.60;99.90
2603;DHT22;1311;47.966;7.958;2023-06-22T16:03:44;26.70;1.00
2603;DHT22;1311;47.966;7.958;2023-06-22T16:06:12;26.70;99.90
2603;DHT22;1311;47.966;7.958;2023-06-22T16:08:38;26.70;99.90